Time;durP1;ratioP1;P1;durP2;ratioP2;P2;SDS_P1;SDS_P2;PMS_P1;PMS_P2;Temp;Humidity;BMP_temperature;BMP_pressure;BME280_temperature;BME280_humidity;BME280_pressure;Samples;Min_cycle;Max_cycle;Signal;HPM_P1;HPM_P2
2022/09/15 00:02:16;;;;;;;16.93;11.90;;;;;;;12.22;100.00;99285.95;1667059;85;21077;-65
2022/09/15 00:04:48;;;;;;;13.83;10.32;;;;;;;12.20;100.00;99291.69;1694187;83;21041;-65
2022/09/15 00:07:17;;;;;;;15.88;10.93;;;;;;;12.20;100.00;99285.36;1709855;82;21016;-64
2022/09/15 00:09:46;;;;;;;15.18;9.90;;;;;;;12.16;100.00;99284.98;1666536;85;21097;-65
2022/09/15 00:12:17;;;;;;;14.43;10.28;;;;;;;12.14;100.00;99289.05;1666653;85;21475;-64
2022/09/15 00:14:46;;;;;;;14.78;10.68;;;;;;;12.09;100.00;99278.77;1666548;86;21099;-66
2022/09/15 00:17:16;;;;;;;12.95;10.30;;;;;;;12.05;100.00;99283.05;1667043;86;21514;-65
2022/09/15 00:19:45;;;;;;;15.78;10.85;;;;;;;12.06;100.00;99277.86;1666938;86;21124;-65
2022/09/15 00:22:15;;;;;;;12.88;9.80;;;;;;;12.07;100.00;99278.16;1696016;83;21077;-66
2022/09/15 00:24:45;;;;;;;17.60;10.88;;;;;;;12.05;100.00;99277.56;1673696;84;21472;-64
2022/09/15 00:27:16;;;;;;;14.40;10.18;;;;;;;11.99;100.00;99273.02;1689875;84;21085;-64
2022/09/15 00:29:45;;;;;;;13.32;9.95;;;;;;;11.95;100.00;99270.43;1673081;84;21026;-65
2022/09/15 00:32:14;;;;;;;13.78;10.10;;;;;;;11.95;100.00;99263.57;1674495;84;21030;-64
2022/09/15 00:34:43;;;;;;;12.95;9.28;;;;;;;11.96;100.00;99263.88;1674301;84;21043;-64
2022/09/15 00:37:14;;;;;;;14.07;9.70;;;;;;;11.93;100.00;99271.20;1674382;84;21014;-63
2022/09/15 00:39:44;;;;;;;13.72;10.30;;;;;;;11.90;100.00;99274.41;1674496;84;21055;-63
2022/09/15 00:42:19;;;;;;;14.68;9.55;;;;;;;11.88;100.00;99279.30;1674254;84;21450;-65
2022/09/15 00:44:54;;;;;;;15.65;10.10;;;;;;;11.86;100.00;99280.07;1673170;86;21082;-66
2022/09/15 00:47:33;;;;;;;12.90;9.25;;;;;;;11.85;99.99;99279.23;1666996;84;21034;-64
2022/09/15 00:50:07;;;;;;;12.75;9.38;;;;;;;11.82;99.89;99283.81;1674309;84;21122;-65
2022/09/15 00:52:47;;;;;;;16.25;9.98;;;;;;;11.81;99.96;99281.30;1674695;84;21185;-65
2022/09/15 00:55:37;;;;;;;14.20;8.73;;;;;;;11.80;99.93;99272.23;1674677;84;21038;-66
2022/09/15 00:58:23;;;;;;;14.63;9.05;;;;;;;11.74;99.80;99267.11;1674269;84;21034;-64
2022/09/15 01:00:59;;;;;;;15.95;9.45;;;;;;;11.73;99.75;99269.55;1674584;86;21571;-64
2022/09/15 01:03:32;;;;;;;12.70;9.00;;;;;;;11.72;99.76;99275.28;1674646;84;21031;-64
2022/09/15 01:06:15;;;;;;;15.85;10.25;;;;;;;11.70;99.72;99276.88;1674476;84;21542;-64
2022/09/15 01:09:02;;;;;;;16.95;10.15;;;;;;;11.69;99.73;99279.29;1672169;84;21467;-64
2022/09/15 01:11:34;;;;;;;13.62;8.88;;;;;;;11.69;99.71;99268.85;1674571;84;21027;-63
2022/09/15 01:14:04;;;;;;;14.93;8.90;;;;;;;11.69;99.66;99270.22;1674565;86;21471;-65
2022/09/15 01:16:58;;;;;;;16.10;9.73;;;;;;;11.69;99.66;99270.22;1674287;84;21090;-64
2022/09/15 01:19:42;;;;;;;17.35;10.15;;;;;;;11.72;99.73;99265.67;1674491;84;21030;-64
2022/09/15 01:22:47;;;;;;;16.60;9.70;;;;;;;11.69;99.61;99270.22;1670371;85;21061;-64
2022/09/15 01:25:44;;;;;;;12.98;9.33;;;;;;;11.69;99.53;99260.62;1658948;85;21020;-65
2022/09/15 01:28:52;;;;;;;13.55;9.48;;;;;;;11.68;99.42;99253.45;1657959;85;21051;-65
2022/09/15 01:34:45;;;;;;;14.90;9.53;;;;;;;11.63;99.46;99235.48;1678138;85;21031;-65
2022/09/15 01:37:19;;;;;;;12.60;9.10;;;;;;;11.64;99.37;99231.67;1699378;83;21015;-65
2022/09/15 01:39:48;;;;;;;13.50;8.90;;;;;;;11.60;99.35;99232.67;1656820;84;21079;-64
2022/09/15 01:42:18;;;;;;;13.18;9.20;;;;;;;11.61;99.44;99240.37;1691720;82;21050;-64
2022/09/15 01:44:57;;;;;;;12.95;9.35;;;;;;;11.61;99.47;99239.00;1678765;84;21064;-64
2022/09/15 01:47:27;;;;;;;13.03;9.58;;;;;;;11.63;99.59;99236.86;1677474;84;21029;-65
2022/09/15 01:50:02;;;;;;;11.35;8.70;;;;;;;11.63;99.50;99222.61;1678973;84;21037;-64
2022/09/15 01:52:32;;;;;;;14.80;9.50;;;;;;;11.61;99.53;99227.48;1678893;84;21058;-66
2022/09/15 01:55:06;;;;;;;13.30;9.70;;;;;;;11.61;99.68;99227.48;1678710;84;21431;-64
2022/09/15 01:57:36;;;;;;;13.32;9.10;;;;;;;11.61;99.78;99219.26;1671448;85;21497;-63
2022/09/15 02:00:07;;;;;;;15.95;10.23;;;;;;;11.62;99.92;99216.81;1677963;84;20995;-65
2022/09/15 02:02:42;;;;;;;12.10;9.58;;;;;;;11.65;100.00;99210.86;1694824;83;21021;-65
2022/09/15 02:05:24;;;;;;;11.08;9.10;;;;;;;11.69;100.00;99214.81;1678959;84;21128;-64
2022/09/15 02:08:07;;;;;;;16.02;8.98;;;;;;;11.73;99.98;99217.42;1678455;84;21509;-63
2022/09/15 02:10:50;;;;;;;15.85;9.85;;;;;;;11.77;99.93;99211.46;1679099;84;21070;-63
2022/09/15 02:13:25;;;;;;;13.48;10.18;;;;;;;11.79;99.91;99217.59;1678767;84;21093;-65
2022/09/15 02:15:57;;;;;;;13.62;10.08;;;;;;;11.81;99.98;99215.44;1693539;83;21085;-65
2022/09/15 02:18:57;;;;;;;14.33;9.90;;;;;;;11.81;100.00;99212.70;1691213;85;21025;-65
2022/09/15 02:21:39;;;;;;;17.23;10.03;;;;;;;11.80;100.00;99213.23;1677408;84;21030;-63
2022/09/15 02:24:17;;;;;;;14.75;9.60;;;;;;;11.78;100.00;99217.28;1635319;86;21122;-65
2022/09/15 02:26:48;;;;;;;16.40;9.68;;;;;;;11.80;100.00;99209.12;1651741;87;21031;-63
2022/09/15 02:29:19;;;;;;;12.13;9.48;;;;;;;11.78;100.00;99213.17;1652061;85;21047;-64
2022/09/15 02:31:51;;;;;;;12.82;9.38;;;;;;;11.80;100.00;99208.28;1651965;87;21068;-64
2022/09/15 02:34:25;;;;;;;16.62;9.45;;;;;;;11.83;100.00;99207.81;1666417;86;21451;-65
2022/09/15 02:36:55;;;;;;;12.75;9.00;;;;;;;11.85;100.00;99208.41;1656403;85;21051;-64
2022/09/15 02:39:29;;;;;;;11.00;8.68;;;;;;;11.86;100.00;99204.06;1635275;86;21034;-64
2022/09/15 02:42:01;;;;;;;15.55;9.93;;;;;;;11.88;100.00;99212.06;1639753;86;21051;-65
2022/09/15 02:44:29;;;;;;;12.18;8.75;;;;;;;11.90;100.00;99208.01;1666358;86;21538;-65
2022/09/15 02:46:59;;;;;;;12.88;9.15;;;;;;;11.92;100.00;99202.28;1666795;86;21467;-64
2022/09/15 02:49:29;;;;;;;10.90;8.13;;;;;;;11.92;100.00;99214.09;1635692;86;21042;-64
2022/09/15 02:51:58;;;;;;;14.05;9.10;;;;;;;11.91;100.00;99206.94;1635764;86;21007;-64
2022/09/15 02:54:27;;;;;;;13.50;8.95;;;;;;;11.90;100.00;99200.31;1640682;86;21130;-63
2022/09/15 02:56:56;;;;;;;12.07;9.05;;;;;;;11.91;100.00;99204.19;1663536;84;21078;-66
2022/09/15 03:00:11;;;;;;;13.83;8.45;;;;;;;11.96;100.00;99197.99;1663411;84;21130;-64
2022/09/15 03:01:57;;;;;;;13.60;9.08;;;;;;;11.98;100.00;99197.22;1660476;85;21051;-65
2022/09/15 03:04:28;;;;;;;11.12;8.18;;;;;;;11.99;100.00;99191.50;1655054;84;21076;-64
2022/09/15 03:06:57;;;;;;;13.43;9.10;;;;;;;12.01;100.00;99185.77;1664257;86;21019;-64
2022/09/15 03:09:27;;;;;;;14.70;9.55;;;;;;;12.00;100.00;99188.22;1663896;84;21147;-65
2022/09/15 03:11:56;;;;;;;14.10;9.53;;;;;;;12.02;100.00;99192.39;1665844;84;21090;-64
2022/09/15 03:14:26;;;;;;;13.85;9.83;;;;;;;12.03;100.00;99184.99;1663895;84;21043;-65
2022/09/15 03:16:57;;;;;;;12.50;8.50;;;;;;;12.04;100.00;99179.80;1667744;84;21095;-65
2022/09/15 03:19:27;;;;;;;13.88;9.78;;;;;;;12.04;100.00;99174.31;1668092;85;21538;-65
2022/09/15 03:21:56;;;;;;;13.83;9.75;;;;;;;12.05;100.00;99165.00;1666944;85;21479;-63
2022/09/15 03:24:25;;;;;;;15.35;9.95;;;;;;;12.08;100.00;99160.95;1691751;83;21061;-63
2022/09/15 03:26:53;;;;;;;14.40;9.10;;;;;;;12.10;100.00;99159.63;1694776;83;21459;-64
2022/09/15 03:29:23;;;;;;;12.43;9.03;;;;;;;12.11;100.00;99157.19;1694699;84;21054;-64
2022/09/15 03:31:53;;;;;;;16.12;9.83;;;;;;;12.12;100.00;99165.72;1694846;84;21034;-64
2022/09/15 03:34:23;;;;;;;12.07;9.50;;;;;;;12.11;100.00;99162.67;1695267;83;21076;-64
2022/09/15 03:36:52;;;;;;;14.18;9.65;;;;;;;12.10;100.00;99158.80;1696403;83;21140;-63
2022/09/15 03:39:21;;;;;;;13.58;9.15;;;;;;;12.10;100.00;99150.02;1696299;83;21078;-64
2022/09/15 03:41:50;;;;;;;12.88;9.35;;;;;;;12.13;100.00;99136.36;1696332;84;21057;-63
2022/09/15 03:44:21;;;;;;;14.38;8.38;;;;;;;12.14;100.00;99129.25;1695959;83;21085;-64
2022/09/15 03:46:51;;;;;;;14.05;9.40;;;;;;;12.16;100.00;99133.13;1695976;83;21093;-65
2022/09/15 03:49:21;;;;;;;16.97;9.43;;;;;;;12.17;100.00;99141.67;1696133;83;21037;-68
2022/09/15 03:51:50;;;;;;;15.15;10.23;;;;;;;12.17;100.00;99158.98;1696130;83;21021;-64
2022/09/15 03:54:20;;;;;;;17.00;10.15;;;;;;;12.16;100.00;99161.42;1694647;83;21032;-63
2022/09/15 03:56:50;;;;;;;13.72;9.45;;;;;;;12.20;100.00;99149.42;1695800;83;21095;-62
2022/09/15 03:59:23;;;;;;;15.50;9.75;;;;;;;12.23;100.00;99154.44;1688688;84;21473;-64
2022/09/15 04:01:53;;;;;;;19.35;10.18;;;;;;;12.27;100.00;99149.60;1695033;83;21063;-64
2022/09/15 04:04:23;;;;;;;13.28;9.63;;;;;;;12.30;100.00;99147.75;1694644;84;21472;-64
2022/09/15 04:06:53;;;;;;;17.25;10.40;;;;;;;12.30;100.00;99151.88;1695695;83;21031;-64
2022/09/15 04:09:23;;;;;;;17.15;10.05;;;;;;;12.32;100.00;99159.34;1695734;83;21036;-63
2022/09/15 04:11:53;;;;;;;15.45;9.93;;;;;;;12.37;100.00;99162.77;1696654;83;21028;-65
2022/09/15 04:14:22;;;;;;;13.83;9.73;;;;;;;12.39;100.00;99164.73;1667559;84;21073;-64
2022/09/15 04:16:52;;;;;;;15.10;9.83;;;;;;;12.41;100.00;99159.84;1665815;85;21473;-66
2022/09/15 04:19:21;;;;;;;14.75;10.15;;;;;;;12.43;100.00;99152.73;1667234;85;21057;-65
2022/09/15 04:21:51;;;;;;;15.48;10.28;;;;;;;12.48;100.00;99148.72;1653131;84;21083;-64
2022/09/15 04:24:20;;;;;;;13.08;9.60;;;;;;;12.52;100.00;99151.29;1664968;85;21054;-64
2022/09/15 04:26:50;;;;;;;16.60;9.65;;;;;;;12.54;100.00;99167.83;1683153;85;21490;-65
2022/09/15 04:29:20;;;;;;;15.83;10.15;;;;;;;12.55;100.00;99183.77;1683085;85;21515;-65
2022/09/15 04:31:50;;;;;;;15.30;10.82;;;;;;;12.58;100.00;99184.67;1684327;84;21153;-65
2022/09/15 04:34:19;;;;;;;13.95;10.85;;;;;;;12.62;100.00;99180.36;1684457;84;21050;-65
2022/09/15 04:36:48;;;;;;;17.82;11.10;;;;;;;12.64;100.00;99175.46;1684795;84;21093;-64
2022/09/15 04:39:18;;;;;;;18.77;11.53;;;;;;;12.65;100.00;99172.47;1684567;84;21077;-65
2022/09/15 04:41:48;;;;;;;13.85;10.28;;;;;;;12.70;100.00;99174.50;1684521;84;21558;-65
2022/09/15 04:44:21;;;;;;;20.80;11.30;;;;;;;12.73;100.00;99168.52;1684381;84;21058;-66
2022/09/15 04:46:51;;;;;;;17.25;10.38;;;;;;;12.78;100.00;99154.87;1683129;85;21034;-65
2022/09/15 04:49:20;;;;;;;17.95;10.75;;;;;;;12.81;100.00;99147.53;1684050;84;21069;-65
2022/09/15 04:51:52;;;;;;;18.10;12.40;;;;;;;12.84;100.00;99138.80;1684515;84;21500;-64
2022/09/15 04:54:20;;;;;;;19.00;11.45;;;;;;;12.90;100.00;99134.23;1684609;84;21094;-64
2022/09/15 04:56:50;;;;;;;18.77;11.90;;;;;;;12.93;100.00;99124.96;1684723;84;21077;-65
2022/09/15 04:59:19;;;;;;;21.62;13.22;;;;;;;12.94;100.00;99122.50;1673066;84;21094;-66
2022/09/15 05:01:51;;;;;;;24.18;14.15;;;;;;;12.94;100.00;99127.17;1684459;84;21066;-64
2022/09/15 05:04:21;;;;;;;21.55;12.78;;;;;;;12.95;100.00;99115.93;1661017;85;21046;-65
2022/09/15 05:06:52;;;;;;;19.00;12.28;;;;;;;12.99;100.00;99120.39;1684455;84;21006;-63
2022/09/15 05:09:22;;;;;;;19.70;11.38;;;;;;;13.01;100.00;99120.48;1683686;84;21088;-64
2022/09/15 05:11:53;;;;;;;18.87;11.95;;;;;;;13.06;100.00;99123.03;1602272;88;21224;-65
2022/09/15 05:14:24;;;;;;;18.55;11.60;;;;;;;13.09;100.00;99122.55;1603259;88;21501;-64
2022/09/15 05:16:53;;;;;;;19.02;12.33;;;;;;;13.12;100.00;99122.05;1603215;88;21054;-66
2022/09/15 05:19:23;;;;;;;21.37;12.50;;;;;;;13.16;100.00;99114.44;1603013;88;21078;-66
2022/09/15 05:21:54;;;;;;;23.67;11.97;;;;;;;13.23;100.00;99117.91;1603322;88;21146;-64
2022/09/15 05:24:26;;;;;;;17.45;11.88;;;;;;;13.29;100.00;99117.46;1604483;88;21063;-64
2022/09/15 05:26:56;;;;;;;17.60;12.20;;;;;;;13.35;100.00;99115.09;1588819;88;21622;-66
2022/09/15 05:29:25;;;;;;;27.80;16.52;;;;;;;13.40;100.00;99096.47;1626582;84;21046;-67
2022/09/15 05:31:54;;;;;;;23.65;13.70;;;;;;;13.47;100.00;99099.36;1677380;84;21530;-66
2022/09/15 05:34:23;;;;;;;21.68;12.73;;;;;;;13.53;100.00;99096.98;1696185;83;21033;-65
2022/09/15 05:36:52;;;;;;;16.05;11.45;;;;;;;13.59;100.00;99093.78;1674118;83;21008;-65
2022/09/15 05:39:22;;;;;;;21.68;13.20;;;;;;;13.63;100.00;99094.41;1685507;84;21056;-65
2022/09/15 05:41:52;;;;;;;18.32;12.23;;;;;;;13.69;100.00;99100.86;1695859;83;21003;-64
2022/09/15 05:44:21;;;;;;;16.90;11.57;;;;;;;13.75;100.00;99105.38;1666743;85;21481;-64
2022/09/15 05:46:51;;;;;;;19.80;12.13;;;;;;;13.81;100.00;99104.37;1695400;83;21503;-67
2022/09/15 05:49:21;;;;;;;19.05;11.65;;;;;;;13.86;100.00;99106.38;1696192;83;21066;-66
2022/09/15 05:51:51;;;;;;;19.42;12.30;;;;;;;13.89;100.00;99117.72;1690359;83;21459;-65
2022/09/15 05:54:21;;;;;;;23.92;13.20;;;;;;;13.90;100.00;99116.63;1695706;84;21075;-66
2022/09/15 05:56:51;;;;;;;18.65;11.78;;;;;;;13.92;100.00;99112.25;1695572;84;21039;-66
2022/09/15 05:59:20;;;;;;;19.15;10.58;;;;;;;13.92;100.00;99113.62;1695856;84;21027;-66
2022/09/15 06:01:50;;;;;;;19.10;11.35;;;;;;;13.96;100.00;99117.55;1695555;84;21059;-66
2022/09/15 06:04:20;;;;;;;18.80;11.48;;;;;;;13.99;100.00;99119.80;1688401;84;21067;-65
2022/09/15 06:06:49;;;;;;;18.48;10.78;;;;;;;14.03;100.00;99124.26;1694970;83;21495;-66
2022/09/15 06:09:23;;;;;;;23.20;12.50;;;;;;;14.09;100.00;99128.77;1694610;83;21084;-66
2022/09/15 06:11:53;;;;;;;18.05;12.20;;;;;;;14.14;100.00;99134.34;1673673;83;21074;-66
2022/09/15 06:14:23;;;;;;;18.52;11.60;;;;;;;14.17;100.00;99125.03;1694548;83;20999;-66
2022/09/15 06:16:53;;;;;;;16.97;11.18;;;;;;;14.21;100.00;99131.70;1666721;84;21077;-69
2022/09/15 06:19:23;;;;;;;20.48;12.07;;;;;;;14.26;100.00;99125.44;1694869;83;21037;-65
2022/09/15 06:21:52;;;;;;;17.62;11.00;;;;;;;14.32;100.00;99125.00;1677920;84;21085;-66
2022/09/15 06:24:23;;;;;;;20.25;11.38;;;;;;;14.37;100.00;99120.40;1676482;83;21050;-65
2022/09/15 06:26:53;;;;;;;19.42;12.18;;;;;;;14.43;100.00;99124.92;1672539;84;21062;-67
2022/09/15 06:29:24;;;;;;;23.77;12.35;;;;;;;14.48;100.00;99125.00;1696085;83;21026;-67
2022/09/15 06:31:53;;;;;;;17.48;12.05;;;;;;;14.52;100.00;99127.53;1694809;83;21041;-67
2022/09/15 06:34:23;;;;;;;15.88;10.58;;;;;;;14.57;100.00;99115.75;1661069;84;21031;-66
2022/09/15 06:36:54;;;;;;;22.70;10.05;;;;;;;14.64;100.00;99111.42;1671207;84;21066;-65
2022/09/15 06:39:24;;;;;;;16.40;10.48;;;;;;;14.68;100.00;99125.81;1660701;84;21135;-66
2022/09/15 06:41:55;;;;;;;18.07;11.78;;;;;;;14.72;100.00;99115.95;1671420;84;21474;-66
2022/09/15 06:44:30;;;;;;;21.15;11.53;;;;;;;14.75;100.00;99108.54;1671291;84;21067;-65
2022/09/15 06:46:59;;;;;;;20.45;11.22;;;;;;;14.76;100.00;99111.59;1671472;84;21043;-68
2022/09/15 06:49:30;;;;;;;16.37;11.75;;;;;;;14.80;100.00;99111.91;1660979;84;21035;-66
2022/09/15 06:52:04;;;;;;;17.55;11.03;;;;;;;14.83;100.00;99106.71;1671292;84;21431;-66
2022/09/15 06:54:30;;;;;;;17.90;11.08;;;;;;;14.87;100.00;99105.11;1660114;84;21506;-67
2022/09/15 06:57:01;;;;;;;15.75;10.82;;;;;;;14.88;100.00;99102.64;1670128;84;21066;-66
2022/09/15 06:59:32;;;;;;;18.50;11.40;;;;;;;14.93;100.00;99107.38;1671515;84;21471;-67
2022/09/15 07:02:02;;;;;;;19.70;11.90;;;;;;;14.98;100.00;99108.02;1671335;84;21098;-67
2022/09/15 07:04:38;;;;;;;17.55;10.90;;;;;;;14.99;100.00;99108.30;1671007;84;21000;-66
2022/09/15 07:07:06;;;;;;;18.60;10.88;;;;;;;15.04;100.00;99104.23;1670287;86;21007;-66
2022/09/15 07:09:37;;;;;;;18.37;11.35;;;;;;;15.08;100.00;99099.31;1670318;84;21118;-67
2022/09/15 07:12:09;;;;;;;22.60;11.48;;;;;;;15.12;100.00;99101.00;1670845;84;21034;-66
2022/09/15 07:14:39;;;;;;;20.60;11.83;;;;;;;15.17;100.00;99095.55;1671449;84;21079;-68
2022/09/15 07:17:09;;;;;;;17.32;11.10;;;;;;;15.23;100.00;99087.60;1671504;84;21459;-66
2022/09/15 07:19:40;;;;;;;18.45;11.20;;;;;;;15.30;100.00;99092.37;1671305;84;21039;-66
2022/09/15 07:22:10;;;;;;;15.25;10.35;;;;;;;15.35;100.00;99092.42;1671047;86;21067;-65
2022/09/15 07:24:40;;;;;;;13.28;9.95;;;;;;;15.40;100.00;99101.30;1663582;84;21401;-67
2022/09/15 07:27:11;;;;;;;17.77;10.35;;;;;;;15.44;100.00;99091.40;1671602;84;21574;-66
2022/09/15 07:29:41;;;;;;;16.62;10.55;;;;;;;15.51;100.00;99089.26;1705449;83;21097;-66
2022/09/15 07:32:11;;;;;;;14.70;9.93;;;;;;;15.58;100.00;99092.67;1696361;84;21036;-67
2022/09/15 07:34:42;;;;;;;17.73;10.08;;;;;;;15.67;100.00;99087.53;1593794;89;21086;-67
2022/09/15 07:37:12;;;;;;;15.18;9.88;;;;;;;15.75;100.00;99082.36;1653660;86;21041;-67
2022/09/15 07:39:42;;;;;;;14.90;9.63;;;;;;;15.84;100.00;99074.41;1650054;87;20988;-68
2022/09/15 07:42:11;;;;;;;15.30;9.65;;;;;;;15.91;100.00;99079.71;1652923;87;21055;-66
2022/09/15 07:44:43;;;;;;;21.40;9.83;;;;;;;15.97;100.00;99084.17;1653071;85;20996;-67
2022/09/15 07:47:12;;;;;;;19.23;10.78;;;;;;;16.02;99.91;99083.66;1652853;87;21000;-66
2022/09/15 07:49:42;;;;;;;14.38;10.23;;;;;;;16.08;99.55;99070.72;1660965;85;21164;-69
2022/09/15 07:52:11;;;;;;;17.23;10.88;;;;;;;16.12;99.29;99069.92;1668249;82;21071;-67
2022/09/15 07:54:40;;;;;;;16.93;8.78;;;;;;;16.15;99.01;99068.55;1739026;81;21027;-69
2022/09/15 07:57:10;;;;;;;25.27;9.93;;;;;;;16.16;98.49;99069.66;1741868;81;21059;-68
2022/09/15 07:59:39;;;;;;;15.40;9.60;;;;;;;16.17;97.89;99071.87;1741724;81;21314;-67
2022/09/15 08:02:17;;;;;;;17.77;9.45;;;;;;;16.17;97.77;99063.04;1731014;82;21327;-69
2022/09/15 08:04:46;;;;;;;16.80;9.68;;;;;;;16.24;97.62;99072.48;1741801;82;21063;-67
2022/09/15 08:07:15;;;;;;;14.30;9.63;;;;;;;16.28;97.39;99069.48;1741909;81;21447;-67
2022/09/15 08:09:44;;;;;;;21.15;10.38;;;;;;;16.31;97.16;99064.81;1741578;82;21020;-69
2022/09/15 08:12:14;;;;;;;15.93;9.83;;;;;;;16.36;96.98;99066.22;1741584;82;21082;-69
2022/09/15 08:14:45;;;;;;;16.07;9.03;;;;;;;16.40;96.78;99069.28;1736529;82;21023;-70
2022/09/15 08:17:18;;;;;;;12.30;9.53;;;;;;;16.44;96.68;99059.34;1740599;82;21119;-69
2022/09/15 08:19:47;;;;;;;17.52;10.78;;;;;;;16.48;96.44;99066.00;1742049;81;21051;-70
2022/09/15 08:22:17;;;;;;;12.58;9.00;;;;;;;16.51;96.16;99063.25;1730409;82;21447;-68
2022/09/15 08:24:46;;;;;;;12.07;8.73;;;;;;;16.54;96.12;99055.80;1741504;81;21151;-69
2022/09/15 08:27:15;;;;;;;12.80;8.63;;;;;;;16.58;95.84;99053.61;1741630;82;21024;-69
2022/09/15 08:29:44;;;;;;;15.00;9.43;;;;;;;16.61;95.75;99059.98;1741770;81;21456;-68
2022/09/15 08:32:14;;;;;;;17.90;10.23;;;;;;;16.67;95.74;99058.10;1741618;81;21076;-68
2022/09/15 08:34:43;;;;;;;13.25;8.43;;;;;;;16.68;95.89;99054.23;1741651;82;20991;-69
2022/09/15 08:37:13;;;;;;;11.70;8.68;;;;;;;16.71;95.78;99057.84;1742109;82;21048;-69
2022/09/15 08:39:44;;;;;;;11.40;9.15;;;;;;;16.72;95.53;99054.80;1741494;82;21074;-69
2022/09/15 08:42:16;;;;;;;16.12;10.28;;;;;;;16.76;95.39;99053.71;1741493;81;20991;-67
2022/09/15 08:44:54;;;;;;;14.63;7.95;;;;;;;16.80;95.29;99047.36;1741698;82;21036;-68
2022/09/15 08:47:42;;;;;;;13.22;8.10;;;;;;;16.85;95.18;99055.40;1740031;81;21008;-68
2022/09/15 08:50:42;;;;;;;12.43;8.08;;;;;;;16.86;94.88;99050.15;1741883;82;21066;-68
2022/09/15 08:53:25;;;;;;;12.37;8.80;;;;;;;16.84;94.48;99053.19;1741501;81;21489;-69
2022/09/15 08:56:03;;;;;;;11.78;7.78;;;;;;;16.84;94.27;99051.80;1742889;82;21059;-68
2022/09/15 08:58:36;;;;;;;10.95;7.08;;;;;;;16.84;94.06;99045.44;1730447;82;21432;-68
2022/09/15 09:01:20;;;;;;;16.30;8.83;;;;;;;16.83;93.75;99047.38;1742484;81;21151;-69
2022/09/15 09:04:39;;;;;;;10.45;7.50;;;;;;;16.84;93.58;99052.36;1743436;82;21035;-70
2022/09/15 09:07:35;;;;;;;11.63;7.90;;;;;;;16.84;93.46;99046.82;1708910;83;21169;-70
2022/09/15 09:10:18;;;;;;;16.23;8.15;;;;;;;16.85;93.05;99048.48;1735448;82;21012;-70
2022/09/15 09:13:10;;;;;;;12.80;7.30;;;;;;;16.87;92.96;99054.58;1741715;82;21440;-70
2022/09/15 09:15:44;;;;;;;12.05;7.60;;;;;;;16.88;92.90;99046.56;1741811;82;21051;-70
2022/09/15 09:18:45;;;;;;;11.55;7.65;;;;;;;16.92;92.87;99041.63;1741511;82;21043;-69
2022/09/15 09:21:22;;;;;;;12.55;7.65;;;;;;;16.94;92.66;99038.59;1741803;82;21008;-71
2022/09/15 09:24:08;;;;;;;10.95;7.08;;;;;;;16.95;92.67;99042.46;1741862;82;21082;-69
2022/09/15 09:26:38;;;;;;;14.58;8.65;;;;;;;16.98;92.57;99038.31;1741518;81;21035;-68
2022/09/15 09:29:19;;;;;;;15.35;7.10;;;;;;;17.01;92.60;99039.16;1741529;82;20999;-68
2022/09/15 09:31:51;;;;;;;10.75;6.72;;;;;;;17.04;92.46;99042.20;1730358;82;21015;-69
2022/09/15 09:34:49;;;;;;;9.85;7.97;;;;;;;17.05;92.04;99034.73;1741614;82;21086;-69
2022/09/15 09:37:18;;;;;;;11.00;7.95;;;;;;;17.06;91.69;99041.94;1741377;82;21039;-69
2022/09/15 09:39:47;;;;;;;10.25;7.87;;;;;;;17.04;91.48;99035.29;1741553;82;21111;-70
2022/09/15 09:42:17;;;;;;;10.53;7.47;;;;;;;17.06;91.54;99038.61;1741713;82;21031;-69
2022/09/15 09:44:47;;;;;;;10.85;7.70;;;;;;;17.10;91.53;99031.98;1741612;82;20988;-68
2022/09/15 09:47:17;;;;;;;11.00;8.33;;;;;;;17.13;91.24;99031.98;1742115;81;21031;-69
2022/09/15 09:49:49;;;;;;;14.78;8.38;;;;;;;17.11;91.09;99035.86;1741518;82;21011;-70
2022/09/15 09:52:38;;;;;;;17.90;10.35;;;;;;;17.15;91.29;99036.70;1741683;81;21031;-69
2022/09/15 09:55:40;;;;;;;11.60;8.10;;;;;;;17.19;91.21;99033.66;1731767;82;21032;-69
2022/09/15 09:58:14;;;;;;;14.03;8.78;;;;;;;17.24;91.16;99032.28;1741366;82;21012;-68
2022/09/15 10:00:43;;;;;;;14.05;8.33;;;;;;;17.28;91.06;99042.53;1741572;81;21027;-69
2022/09/15 10:03:21;;;;;;;11.50;7.40;;;;;;;17.31;91.05;99036.99;1745258;81;21549;-69
2022/09/15 10:06:09;;;;;;;10.25;7.60;;;;;;;17.35;90.99;99043.09;1703088;83;21065;-67
2022/09/15 10:08:40;;;;;;;9.53;7.45;;;;;;;17.38;90.72;99049.46;1694850;83;21016;-69
2022/09/15 10:11:10;;;;;;;9.70;7.37;;;;;;;17.40;90.50;99050.02;1662963;84;21451;-69
2022/09/15 10:13:53;;;;;;;13.22;7.20;;;;;;;17.44;90.42;99041.44;1696010;83;21013;-70
2022/09/15 10:16:22;;;;;;;11.90;7.50;;;;;;;17.49;90.24;99053.07;1695609;84;21030;-70
2022/09/15 10:18:52;;;;;;;12.33;7.42;;;;;;;17.53;90.17;99049.20;1694498;83;21077;-69
2022/09/15 10:21:24;;;;;;;9.65;7.50;;;;;;;17.59;89.86;99055.05;1629627;85;21105;-67
2022/09/15 10:23:53;;;;;;;17.45;8.28;;;;;;;17.63;89.72;99047.29;1694120;85;21104;-69
2022/09/15 10:26:31;;;;;;;10.20;7.10;;;;;;;17.66;89.22;99051.45;1675295;84;21102;-68
2022/09/15 10:29:15;;;;;;;11.30;6.45;;;;;;;17.71;89.20;99052.86;1668954;85;21027;-70
2022/09/15 10:32:06;;;;;;;11.22;6.40;;;;;;;17.78;89.25;99047.87;1674463;84;21102;-69
2022/09/15 10:34:35;;;;;;;11.28;6.30;;;;;;;17.84;88.94;99046.77;1604712;89;21080;-69
2022/09/15 10:37:35;;;;;;;13.88;6.78;;;;;;;17.90;88.55;99044.81;1626708;86;21495;-70
2022/09/15 10:40:36;;;;;;;9.58;6.53;;;;;;;17.95;88.29;99049.80;1636295;86;21071;-69
2022/09/15 10:43:40;;;;;;;8.33;5.50;;;;;;;18.00;87.79;99027.61;1598138;88;21051;-69
2022/09/15 10:46:17;;;;;;;11.43;5.95;;;;;;;18.04;86.75;99027.33;1635570;86;21039;-70
2022/09/15 10:49:23;;;;;;;11.47;5.93;;;;;;;18.05;85.96;99022.06;1641233;86;21678;-67
2022/09/15 10:52:49;;;;;;;12.82;5.55;;;;;;;18.07;85.57;99021.78;1643282;86;21432;-69
2022/09/15 10:55:45;;;;;;;9.53;5.58;;;;;;;18.10;84.79;99014.84;1647107;86;21075;-67
2022/09/15 10:58:27;;;;;;;8.05;5.30;;;;;;;18.12;84.41;99019.00;1640259;86;21083;-68
2022/09/15 11:01:04;;;;;;;10.68;5.62;;;;;;;18.16;84.25;99013.72;1652711;86;21067;-68
2022/09/15 11:04:09;;;;;;;8.08;5.25;;;;;;;18.17;83.58;99012.05;1634170;86;21497;-69
2022/09/15 11:07:06;;;;;;;10.55;5.45;;;;;;;18.20;83.63;99016.20;1599638;88;21102;-70
2022/09/15 11:09:48;;;;;;;12.75;5.03;;;;;;;18.22;83.37;99014.02;1599507;88;21078;-68
2022/09/15 11:12:42;;;;;;;13.20;5.45;;;;;;;18.23;83.06;99014.29;1587247;88;21082;-69
2022/09/15 11:15:39;;;;;;;6.83;5.03;;;;;;;18.25;83.21;99002.36;1609200;87;21051;-67
2022/09/15 11:18:17;;;;;;;6.87;4.97;;;;;;;18.27;82.51;99007.06;1616107;88;21120;-69
2022/09/15 11:21:08;;;;;;;9.23;5.60;;;;;;;18.24;81.69;99006.25;1588667;88;21494;-67
2022/09/15 11:23:41;;;;;;;8.43;5.15;;;;;;;18.20;81.52;99007.33;1619892;88;21139;-68
2022/09/15 11:26:15;;;;;;;9.28;5.20;;;;;;;18.19;81.67;99007.06;1604216;89;21071;-68
2022/09/15 11:29:25;;;;;;;7.55;5.20;;;;;;;18.18;81.79;99003.19;1633462;88;21078;-68
2022/09/15 11:32:05;;;;;;;6.62;4.70;;;;;;;18.14;81.82;98997.38;1639124;86;21067;-70
2022/09/15 11:34:42;;;;;;;8.85;5.50;;;;;;;18.13;82.06;98992.11;1677219;85;21151;-69
2022/09/15 11:37:21;;;;;;;9.63;5.50;;;;;;;18.11;81.96;98994.33;1667110;85;21102;-68
2022/09/15 11:40:05;;;;;;;12.07;4.40;;;;;;;18.10;82.04;98987.13;1662305;85;21109;-70
2022/09/15 11:42:51;;;;;;;8.25;4.70;;;;;;;18.06;82.03;98982.15;1650403;85;21157;-68
2022/09/15 11:45:24;;;;;;;7.92;5.08;;;;;;;18.05;82.32;98980.48;1667168;85;21159;-68
2022/09/15 11:48:01;;;;;;;11.03;5.37;;;;;;;18.03;82.49;98977.17;1651113;85;21097;-70
2022/09/15 11:50:33;;;;;;;9.43;5.65;;;;;;;18.04;82.47;98975.23;1614348;89;21048;-69
2022/09/15 11:53:33;;;;;;;13.50;6.28;;;;;;;18.05;82.78;98973.55;1607181;87;21068;-69
2022/09/15 11:56:14;;;;;;;10.10;6.05;;;;;;;18.05;83.04;98972.17;1657167;85;21044;-68
2022/09/15 11:59:04;;;;;;;13.45;6.47;;;;;;;18.08;83.42;98967.18;1664369;85;21057;-71